Station: Cape Wessel  

  Atmospheric Gas Attenuation - ITU Rec 676-11   ----------------- dB/100km -----------------
Date Time Temp RH % AH g/m3 Dew Point Wind Direction Speed kph Gust kph Barometer mB Rainfall Since 9am 24GHz 47GHz 76GHz 122GHz 134GHz 241GHz
04/05 14:20 29.4 77 22.61 24.9 32 33 1010.1 0 48.1 44.6 89.4 236.8 266.2 925.2
04/05 14:10 29.4 77 22.61 24.9 28 32 1010.2 0 48.1 44.6 89.4 236.8 266.2 925.2
04/05 14:00 29.4 78 22.9 25.2 28 35 1010.3 0 48.7 45.2 90.8 240.6 270.8 941.2
04/05 13:50 29.4 79 23.19 25.4 24 28 1010.4 0 49.3 45.7 92.3 244.4 275.4 957.4
04/05 13:40 29.4 80 23.49 25.6 24 32 1010.5 0 50.0 46.3 93.8 248.3 280.3 974.2
04/05 13:30 29.4 79 23.19 25.4 26 33 1010.6 0 49.3 45.8 92.3 244.4 275.5 957.5
04/05 13:20 29.5 79 23.32 25.5 26 32 1010.6 0 49.6 46.0 92.8 245.8 277.2 963.4
04/05 13:10 29.6 79 23.45 25.6 26 30 1010.7 0 49.9 46.2 93.3 247.2 278.9 969.4
04/05 13:00 30.5 77 23.99 26 26 32 1010.8 0 50.9 46.7 94.9 251.3 284.1 987.8
04/05 12:50 30.7 76 23.94 26 24 30 1010.9 0 50.7 46.5 94.4 249.9 282.6 982.5
04/05 12:40 32.1 74 25.12 26.9 20 24 1011.1 0 53.0 48.0 98.4 260.6 296.1 1029.4
04/05 12:30 31.5 74 24.33 26.3 26 32 1011.1 0 51.5 46.8 95.3 252.4 285.8 993.7
04/05 12:20 30.4 75 23.25 25.5 30 32 1011.2 0 49.3 45.3 91.4 242.0 272.8 948.5
04/05 12:10 30.4 74 22.94 25.2 26 32 1011.3 0 48.7 44.8 89.9 238.1 268.0 931.6
04/05 12:00 31.3 74 24.07 26.1 26 32 1011.4 0 50.9 46.5 94.3 249.7 282.5 982.1
04/05 11:50 31.5 73 24 26.1 30 32 1011.6 0 50.8 46.2 93.7 248.2 280.6 975.8
04/05 11:40 31.2 75 24.27 26.2 26 30 1011.6 0 51.4 46.9 95.4 252.7 286.1 994.6
04/05 11:30 30.9 74 23.56 25.7 30 37 1011.7 0 49.9 45.7 92.3 244.5 276.0 959.5
04/05 11:20 31 74 23.69 25.8 30 35 1011.7 0 50.2 45.9 92.8 245.9 277.6 965.3
04/05 11:10 30.4 77 23.86 25.9 28 33 1011.8 0 50.6 46.6 94.4 250.1 282.6 982.5
04/05 11:00 30.2 77 23.61 25.7 28 35 1011.9 0 50.1 46.2 93.4 247.5 279.4 971.3
04/05 10:50 30.2 78 23.92 25.9 28 32 1012 0 50.8 46.8 95.0 251.6 284.4 988.6
04/05 10:40 30.1 77 23.48 25.6 24 28 1012.2 0 49.8 46.0 92.9 246.2 277.8 965.6
04/05 10:30 30.3 76 23.43 25.6 28 37 1012.2 0 49.7 45.8 92.5 244.9 276.2 960.3
04/05 10:20 29.7 78 23.28 25.4 30 33 1012.2 0 49.5 45.8 92.5 244.9 276.1 959.6
04/05 10:10 29.4 80 23.49 25.6 26 30 1012.2 0 50.0 46.4 93.9 248.6 280.6 975.2
04/05 10:00 29.4 80 23.49 25.6 26 35 1012.2 0 50.0 46.4 93.9 248.6 280.6 975.2
04/05 09:50 29.2 80 23.23 25.4 26 30 1012.1 0 49.4 46.0 92.8 245.8 277.1 963.2
04/05 09:40 29.5 79 23.32 25.5 26 30 1012 0 49.6 46.0 92.9 246.0 277.4 964.3
04/05 09:30 29.6 78 23.15 25.4 26 32 1011.9 0 49.2 45.6 91.9 243.5 274.3 953.5
04/05 09:20 29.2 78 22.65 25 26 32 1011.9 0 48.2 44.9 90.0 238.3 267.8 930.9
04/05 09:10 29.5 78 23.03 25.3 26 28 1011.8 0 49.0 45.4 91.5 242.2 272.7 948.1
04/05 09:00 29.3 79 23.07 25.3 28 33 1011.8 0 49.1 45.6 91.9 243.4 274.1 952.8
04/05 08:50 29.2 78 22.65 25 28 32 1011.7 0.2 48.2 44.9 90.0 238.2 267.8 930.8
04/05 08:40 28.9 81 23.14 25.3 24 30 1011.6 0.2 49.3 46.0 92.7 245.6 276.7 961.7
04/05 08:30 29.1 80 23.11 25.3 26 33 1011.4 0.2 49.2 45.8 92.3 244.5 275.4 957.4
04/05 08:20 28.5 81 22.64 24.9 26 30 1011.4 0.2 48.3 45.2 90.7 240.3 270.1 938.8
04/05 08:10 28.3 82 22.67 24.9 30 33 1011.4 0.2 48.4 45.4 91.1 241.3 271.3 943.0
04/05 08:00 28.6 82 23.05 25.2 28 35 1011.3 0.2 49.1 46.0 92.6 245.3 276.3 960.4
04/05 07:50 28.4 82 22.8 25 24 28 1011.2 0.2 48.6 45.6 91.6 242.7 273.0 948.9
04/05 07:40 28.2 84 23.1 25.2 30 35 1011.2 0.2 49.3 46.3 93.4 247.3 278.6 968.3
04/05 07:30 28.3 84 23.22 25.3 26 33 1011.1 0.2 49.5 46.5 93.8 248.5 280.2 973.7
04/05 07:20 27.7 86 23.01 25.1 30 32 1011 0.2 49.2 46.4 93.5 247.7 279.0 969.5
04/05 07:10 27.3 86 22.5 24.7 28 32 1011 0.2 48.1 45.6 91.5 242.2 272.2 945.8
04/05 07:00 27.3 87 22.77 24.9 26 32 1010.8 0.2 48.7 46.1 92.8 245.8 276.6 961.0
04/05 06:50 27 87 22.39 24.6 28 32 1010.6 0.2 48.0 45.5 91.3 241.7 271.4 943.2
04/05 06:40 27 87 22.39 24.6 24 26 1010.5 0.2 48.0 45.5 91.3 241.7 271.4 943.1
04/05 06:30 26.9 87 22.27 24.5 26 32 1010.4 0.2 47.7 45.3 90.8 240.4 269.8 937.5
04/05 06:20 26.9 87 22.27 24.5 24 28 1010.3 0.2 47.7 45.3 90.8 240.3 269.8 937.5
04/05 06:10 26.7 87 22.02 24.4 24 28 1010.2 0.2 47.2 44.9 89.8 237.7 266.5 925.8
04/05 06:00 26.8 87 22.14 24.5 24 30 1010.1 0.2 47.5 45.1 90.2 238.9 268.0 931.3
04/05 05:50 26.8 87 22.14 24.5 28 30 1009.9 0.2 47.5 45.1 90.2 238.9 268.0 931.1
04/05 05:40 26.8 87 22.14 24.5 24 30 1009.8 0.2 47.5 45.1 90.2 238.9 268.0 931.1
04/05 05:30 26.8 86 21.89 24.3 28 33 1009.7 0.2 46.9 44.6 89.0 235.5 263.9 917.0
04/05 05:20 26.6 86 21.65 24.1 30 32 1009.6 0.2 46.4 44.2 88.0 233.0 260.7 905.9
04/05 05:10 26.7 86 21.77 24.2 26 30 1009.6 0.2 46.7 44.4 88.5 234.3 262.3 911.4
04/05 05:00 26.8 86 21.89 24.3 26 35 1009.8 0.2 46.9 44.6 89.0 235.6 263.9 917.0
04/05 04:50 26.8 86 21.89 24.3 30 33 1009.7 0.2 46.9 44.6 89.0 235.5 263.9 917.0
04/05 04:40 26.7 86 21.77 24.2 24 30 1009.7 0.2 46.7 44.4 88.5 234.3 262.3 911.5
04/05 04:30 26.9 86 22.01 24.4 26 32 1009.8 0.2 47.2 44.8 89.4 236.8 265.5 922.5
04/05 04:20 26.8 86 21.89 24.3 26 28 1009.8 0.2 46.9 44.6 89.0 235.6 263.9 917.0
04/05 04:10 26.8 85 21.64 24.1 26 30 1009.9 0.2 46.4 44.1 87.7 232.3 259.9 903.1
04/05 04:00 26.8 86 21.89 24.3 26 35 1009.8 0.2 46.9 44.6 89.0 235.6 263.9 917.0
04/05 03:50 26.8 86 21.89 24.3 28 32 1009.8 0.2 46.9 44.6 89.0 235.6 263.9 917.0
04/05 03:40 26.8 85 21.64 24.1 26 32 1010.2 0.2 46.4 44.1 87.8 232.4 260.0 903.3
04/05 03:30 26.9 85 21.76 24.2 26 33 1010.2 0.2 46.6 44.3 88.2 233.6 261.5 908.8
04/05 03:20 26.9 85 21.76 24.2 28 30 1010.3 0.2 46.6 44.3 88.2 233.6 261.6 908.9
04/05 03:10 27 85 21.88 24.3 28 30 1010.3 0.2 46.9 44.5 88.7 234.9 263.1 914.3
04/05 03:00 27.1 86 22.26 24.6 24 30 1010.5 0.2 47.7 45.2 90.5 239.6 268.9 934.5
04/05 02:50 27 86 22.13 24.5 28 30 1010.5 0.2 47.4 45.0 90.0 238.2 267.2 928.5
04/05 02:40 27.1 85 22 24.4 24 28 1010.5 0.2 47.1 44.7 89.2 236.2 264.7 919.9
04/05 02:30 27 86 22.13 24.5 26 33 1010.5 0.2 47.4 45.0 90.0 238.2 267.2 928.5
04/05 02:20 27.1 87 22.52 24.7 26 32 1010.5 0.2 48.2 45.7 91.8 243.1 273.2 949.2
04/05 02:10 27.1 85 22 24.4 30 32 1010.4 0.2 47.1 44.7 89.2 236.2 264.7 919.9
04/05 02:00 27 85 21.88 24.3 30 35 1010.4 0.2 46.9 44.5 88.7 234.9 263.2 914.4
04/05 01:50 27 87 22.39 24.6 30 33 1010.3 0.2 48.0 45.5 91.2 241.6 271.4 943.0
04/05 01:40 27 86 22.13 24.5 30 33 1010.4 0.2 47.4 45.0 90.0 238.2 267.2 928.4
04/05 01:30 27.1 86 22.26 24.6 28 35 1010.6 0.2 47.7 45.2 90.5 239.6 269.0 934.6
04/05 01:20 27.1 87 22.52 24.7 28 32 1010.7 0.2 48.2 45.7 91.8 243.1 273.2 949.3
04/05 01:10 27.1 86 22.26 24.6 30 33 1011 0.2 47.7 45.2 90.5 239.7 269.0 934.8
04/05 01:00 27 86 22.13 24.5 28 35 1011 0.2 47.4 45.0 90.0 238.3 267.3 928.8
04/05 00:50 27 86 22.13 24.5 30 33 1011.1 0.2 47.4 45.0 90.0 238.3 267.3 928.8
04/05 00:40 27.1 87 22.52 24.7 28 32 1011.3 0.2 48.2 45.7 91.8 243.2 273.3 949.7
04/05 00:30 27.1 86 22.26 24.6 28 35 1011.4 0.2 47.7 45.2 90.6 239.8 269.1 935.1
04/05 00:20 27.2 87 22.64 24.8 24 28 1011.4 0.2 48.5 45.9 92.3 244.5 274.9 955.3
04/05 00:10 27.1 87 22.52 24.7 26 32 1011.5 0.2 48.2 45.8 91.9 243.2 273.3 949.8
04/05 00:00 27.3 87 22.77 24.9 30 35 1011.4 0.2 48.7 46.1 92.9 245.9 276.7 961.4
03/05 23:50 27.1 87 22.52 24.7 30 33 1011.5 0.2 48.2 45.8 91.9 243.2 273.3 949.8
03/05 23:40 27.2 88 22.9 25 24 30 1011.3 0.2 49.0 46.5 93.6 247.9 279.1 970.0
03/05 23:30 27.2 88 22.9 25 30 35 1011.3 0.2 49.0 46.5 93.6 247.9 279.1 970.0
03/05 23:20 27.2 87 22.64 24.8 30 32 1011.3 0.2 48.5 45.9 92.3 244.5 274.9 955.2
03/05 23:10 27.4 88 23.16 25.2 30 35 1011.4 0.2 49.5 46.9 94.7 250.8 282.7 982.3
03/05 23:00 27.3 88 23.03 25.1 32 39 1011.4 0.2 49.3 46.7 94.2 249.4 280.9 976.2
03/05 22:50 27.4 88 23.16 25.2 32 35 1011.5 0.2 49.5 46.9 94.7 250.8 282.7 982.3
03/05 22:40 27.3 88 23.03 25.1 32 35 1011.5 0.2 49.3 46.7 94.2 249.4 280.9 976.2
03/05 22:30 27.2 88 22.9 25 30 37 1011.5 0.2 49.0 46.5 93.6 248.0 279.2 970.1
03/05 22:20 27.3 89 23.29 25.3 30 35 1011.7 0.2 49.8 47.2 95.5 252.9 285.3 991.2
03/05 22:10 27.4 88 23.16 25.2 30 35 1011.7 0.2 49.5 46.9 94.7 250.8 282.7 982.5
03/05 22:00 27.4 88 23.16 25.2 30 35 1011.7 0.2 49.5 46.9 94.7 250.8 282.7 982.5
03/05 21:50 27.4 88 23.16 25.2 30 33 1011.7 0.2 49.5 46.9 94.7 250.8 282.7 982.5

Last Refresh: 04-May-2026 14:31:40

Bureau of Meteorology